createdAt,value
2022-12-01T00:02:17.562Z,6.67
2022-12-01T00:04:45.126Z,6.76
2022-12-01T00:07:12.545Z,6.74
2022-12-01T00:09:59.092Z,6.79
2022-12-01T00:12:26.571Z,6.82
2022-12-01T00:15:00.797Z,6.83
2022-12-01T00:17:30.184Z,6.64
2022-12-01T00:19:58.124Z,6.52
2022-12-01T00:22:25.623Z,6.47
2022-12-01T00:24:54.365Z,6.28
2022-12-01T00:27:21.788Z,6.38
2022-12-01T00:29:49.834Z,6.43
2022-12-01T00:32:17.448Z,6.43
2022-12-01T00:34:44.940Z,6.60
2022-12-01T00:37:12.391Z,6.59
2022-12-01T00:39:39.787Z,6.61
2022-12-01T00:42:13.096Z,6.53
2022-12-01T00:44:40.905Z,6.54
2022-12-01T00:47:08.319Z,6.57
2022-12-01T00:49:41.715Z,6.55
2022-12-01T00:52:09.438Z,6.51
2022-12-01T00:54:36.899Z,6.34
2022-12-01T00:57:04.470Z,6.39
2022-12-01T00:59:33.226Z,6.25
2022-12-01T01:02:00.673Z,6.28
2022-12-01T01:04:30.299Z,6.15
2022-12-01T01:06:57.777Z,6.10
2022-12-01T01:09:25.891Z,6.15
2022-12-01T01:11:53.339Z,6.15
2022-12-01T01:14:21.669Z,6.15
2022-12-01T01:16:50.820Z,6.16
2022-12-01T01:19:18.350Z,6.12
2022-12-01T01:21:45.748Z,6.22
2022-12-01T01:24:13.150Z,6.41
2022-12-01T01:26:40.607Z,6.50
2022-12-01T01:29:08.083Z,6.37
2022-12-01T01:31:36.415Z,6.34
2022-12-01T01:34:05.170Z,6.02
2022-12-01T01:36:32.710Z,6.17
2022-12-01T01:39:00.231Z,6.11
2022-12-01T01:41:28.799Z,6.18
2022-12-01T01:43:57.178Z,6.29
2022-12-01T01:46:26.490Z,6.17
2022-12-01T01:48:55.858Z,6.14
2022-12-01T01:51:28.063Z,6.09
2022-12-01T01:53:58.595Z,5.93
2022-12-01T01:56:26.069Z,6.08
2022-12-01T01:58:53.978Z,5.99
2022-12-01T02:01:21.618Z,5.85
2022-12-01T02:03:49.840Z,5.89
2022-12-01T02:06:17.650Z,6.04
2022-12-01T02:08:46.435Z,6.04
2022-12-01T02:11:27.301Z,6.14
2022-12-01T02:14:04.220Z,5.77
2022-12-01T02:16:35.723Z,5.96
2022-12-01T02:19:16.234Z,6.17
2022-12-01T02:21:56.462Z,6.23
2022-12-01T02:25:00.128Z,6.31
2022-12-01T02:27:43.332Z,6.23
2022-12-01T02:30:12.312Z,6.27
2022-12-01T02:32:48.543Z,6.19
2022-12-01T02:35:21.856Z,6.11
2022-12-01T02:37:55.939Z,6.00
2022-12-01T02:40:26.616Z,5.69
2022-12-01T02:43:02.865Z,6.07
2022-12-01T02:45:36.957Z,6.13
2022-12-01T02:48:07.512Z,6.27
2022-12-01T02:50:36.472Z,6.37
2022-12-01T02:53:05.052Z,6.32
2022-12-01T02:55:32.675Z,6.30
2022-12-01T02:58:00.061Z,5.99
2022-12-01T03:00:27.704Z,6.15
2022-12-01T03:03:18.373Z,6.10
2022-12-01T03:05:53.094Z,6.08
2022-12-01T03:08:26.119Z,6.13
2022-12-01T03:10:55.201Z,6.19
2022-12-01T03:13:33.175Z,6.15
2022-12-01T03:16:04.483Z,6.17
2022-12-01T03:18:37.066Z,6.18
2022-12-01T03:21:10.120Z,6.08
2022-12-01T03:23:41.029Z,6.09
2022-12-01T03:26:10.468Z,5.97
2022-12-01T03:28:42.308Z,5.98
2022-12-01T03:31:12.569Z,5.76
2022-12-01T03:33:44.546Z,5.86
2022-12-01T03:36:15.955Z,5.81
2022-12-01T03:38:45.430Z,5.93
2022-12-01T03:41:15.812Z,6.05
2022-12-01T03:43:47.958Z,6.12
2022-12-01T03:46:19.389Z,6.13
2022-12-01T03:48:48.409Z,6.16
2022-12-01T03:51:18.487Z,6.07
2022-12-01T03:53:52.788Z,6.25
2022-12-01T03:56:22.146Z,6.18
2022-12-01T03:58:51.656Z,6.13
2022-12-01T04:01:20.705Z,5.96
2022-12-01T04:03:49.511Z,5.94
2022-12-01T04:06:16.988Z,6.06
2022-12-01T04:08:44.432Z,6.03
2022-12-01T04:11:32.650Z,6.15
2022-12-01T04:14:00.490Z,6.06
2022-12-01T04:16:28.095Z,6.12
2022-12-01T04:18:56.916Z,6.17
2022-12-01T04:21:24.344Z,6.04
2022-12-01T04:24:03.845Z,6.09
2022-12-01T04:26:33.207Z,5.78
2022-12-01T04:29:00.908Z,5.96
2022-12-01T04:31:28.474Z,6.00
2022-12-01T04:33:57.584Z,5.90
2022-12-01T04:36:25.263Z,5.93
2022-12-01T04:38:52.771Z,5.76
2022-12-01T04:41:20.198Z,5.90
2022-12-01T04:43:47.595Z,5.80
2022-12-01T04:46:15.268Z,5.92
2022-12-01T04:48:43.178Z,5.76
2022-12-01T04:51:11.995Z,5.79
2022-12-01T04:53:39.471Z,5.81
2022-12-01T04:56:07.443Z,5.56
2022-12-01T04:58:34.952Z,5.68
2022-12-01T05:01:03.328Z,5.68
2022-12-01T05:03:31.164Z,5.61
2022-12-01T05:06:03.167Z,5.32
2022-12-01T05:08:31.959Z,5.39
2022-12-01T05:10:59.381Z,5.51
2022-12-01T05:13:26.918Z,5.50
2022-12-01T05:15:54.423Z,5.51
2022-12-01T05:18:21.950Z,5.71
2022-12-01T05:20:57.459Z,5.82
2022-12-01T05:23:25.150Z,5.58
2022-12-01T05:25:54.076Z,5.44
2022-12-01T05:28:22.215Z,5.65
2022-12-01T05:30:50.294Z,5.60
2022-12-01T05:33:18.150Z,5.65
2022-12-01T05:35:45.595Z,5.45
2022-12-01T05:38:13.012Z,5.51
2022-12-01T05:40:40.477Z,5.68
2022-12-01T05:43:09.247Z,5.81
2022-12-01T05:45:36.920Z,5.69
2022-12-01T05:48:04.749Z,5.68
2022-12-01T05:50:32.340Z,5.74
2022-12-01T05:52:59.812Z,5.69
2022-12-01T05:55:27.247Z,5.50
2022-12-01T05:57:54.644Z,5.63
2022-12-01T06:00:23.610Z,5.75
2022-12-01T06:02:51.071Z,5.60
2022-12-01T06:05:18.723Z,5.52
2022-12-01T06:07:46.183Z,5.65
2022-12-01T06:10:13.830Z,5.68
2022-12-01T06:12:41.279Z,5.64
2022-12-01T06:15:09.884Z,5.62
2022-12-01T06:17:40.910Z,5.59
2022-12-01T06:20:09.900Z,5.59
2022-12-01T06:22:37.360Z,5.59
2022-12-01T06:25:05.433Z,5.47
2022-12-01T06:27:33.045Z,5.41
2022-12-01T06:30:00.519Z,5.44
2022-12-01T06:32:28.195Z,5.37
2022-12-01T06:34:57.022Z,5.43
2022-12-01T06:37:24.423Z,5.57
2022-12-01T06:39:51.955Z,5.54
2022-12-01T06:42:19.595Z,5.65
2022-12-01T06:44:47.268Z,5.66
2022-12-01T06:47:15.751Z,5.69
2022-12-01T06:49:43.912Z,5.54
2022-12-01T06:52:12.686Z,5.60
2022-12-01T06:54:40.135Z,5.49
2022-12-01T06:57:07.745Z,5.47
2022-12-01T06:59:35.458Z,5.39
2022-12-01T07:02:03.869Z,5.47
2022-12-01T07:04:31.598Z,5.61
2022-12-01T07:06:59.036Z,5.69
2022-12-01T07:09:27.774Z,5.68
2022-12-01T07:11:55.219Z,5.70
2022-12-01T07:14:24.820Z,5.79
2022-12-01T07:16:52.322Z,5.72
2022-12-01T07:19:19.784Z,5.66
2022-12-01T07:21:48.311Z,5.55
2022-12-01T07:24:15.989Z,5.61
2022-12-01T07:26:44.971Z,5.76
2022-12-01T07:29:12.768Z,5.72
2022-12-01T07:31:40.361Z,5.74
2022-12-01T07:34:07.904Z,5.83
2022-12-01T07:36:35.299Z,5.89
2022-12-01T07:39:06.051Z,5.86
2022-12-01T07:41:33.571Z,5.89
2022-12-01T07:44:02.328Z,5.98
2022-12-01T07:46:29.845Z,5.99
2022-12-01T07:48:57.527Z,5.95
2022-12-01T07:51:26.242Z,5.81
2022-12-01T07:53:54.943Z,5.93
2022-12-01T07:56:23.239Z,6.02
2022-12-01T07:58:50.702Z,5.77
2022-12-01T08:01:21.292Z,5.89
2022-12-01T08:03:49.683Z,5.95
2022-12-01T08:06:17.990Z,6.01
2022-12-01T08:08:45.592Z,5.97
2022-12-01T08:11:15.046Z,5.86
2022-12-01T08:13:43.154Z,5.89
2022-12-01T08:16:12.162Z,5.85
2022-12-01T08:18:42.368Z,5.92
2022-12-01T08:21:11.534Z,5.97
2022-12-01T08:23:39.244Z,5.81
2022-12-01T08:26:08.787Z,5.81
2022-12-01T08:28:36.881Z,5.92
2022-12-01T08:31:09.007Z,6.12
2022-12-01T08:33:36.623Z,6.12
2022-12-01T08:36:06.719Z,6.19
2022-12-01T08:38:34.473Z,6.15
2022-12-01T08:41:02.655Z,6.30
2022-12-01T08:46:17.912Z,6.27
2022-12-01T08:48:45.359Z,6.20
2022-12-01T08:51:15.582Z,6.28
2022-12-01T08:53:46.005Z,6.23
2022-12-01T08:56:15.691Z,6.37
2022-12-01T08:58:43.302Z,6.20
2022-12-01T09:01:12.500Z,5.83
2022-12-01T09:03:40.904Z,5.77
2022-12-01T09:06:12.179Z,5.84
2022-12-01T09:08:41.146Z,5.83
2022-12-01T09:11:12.481Z,5.42
2022-12-01T09:13:40.671Z,5.65
2022-12-01T09:16:09.697Z,5.46
2022-12-01T09:18:37.140Z,5.62
2022-12-01T09:21:11.211Z,5.69
2022-12-01T09:23:39.495Z,5.24
2022-12-01T09:26:13.362Z,5.29
2022-12-01T09:28:41.565Z,5.55
2022-12-01T09:31:10.602Z,5.14
2022-12-01T09:33:38.342Z,5.28
2022-12-01T09:36:08.032Z,5.29
2022-12-01T09:38:36.993Z,5.13
2022-12-01T09:41:09.951Z,5.20
2022-12-01T09:43:41.860Z,4.78
2022-12-01T09:46:14.216Z,5.06
2022-12-01T09:48:44.385Z,5.28
2022-12-01T09:51:14.712Z,5.25
2022-12-01T09:53:42.904Z,5.25
2022-12-01T09:56:20.500Z,4.99
2022-12-01T09:58:49.199Z,4.77
2022-12-01T10:01:23.019Z,4.61
2022-12-01T10:03:57.827Z,4.66
2022-12-01T10:06:30.642Z,4.76
2022-12-01T10:09:05.889Z,4.98
2022-12-01T10:11:36.601Z,5.13
2022-12-01T10:14:05.356Z,5.00
2022-12-01T10:16:38.651Z,5.19
2022-12-01T10:19:09.797Z,4.98
2022-12-01T10:21:54.643Z,5.20
2022-12-01T10:24:30.723Z,5.23
2022-12-01T10:27:09.201Z,5.19
2022-12-01T10:29:47.367Z,5.47
2022-12-01T10:32:19.852Z,5.79
2022-12-01T10:34:47.814Z,5.59
2022-12-01T10:37:18.903Z,5.73
2022-12-01T10:39:48.646Z,5.33
2022-12-01T10:42:22.192Z,5.42
2022-12-01T10:44:50.630Z,5.55
2022-12-01T10:47:22.980Z,5.44
2022-12-01T10:49:50.880Z,5.61
2022-12-01T10:52:42.499Z,5.96
2022-12-01T10:55:29.775Z,5.97
2022-12-01T10:58:04.771Z,5.94
2022-12-01T11:03:28.875Z,5.82
2022-12-01T11:05:58.296Z,5.65
2022-12-01T11:08:32.988Z,5.83
2022-12-01T11:11:00.705Z,6.06
2022-12-01T11:13:32.305Z,6.18
2022-12-01T11:16:01.707Z,6.26
2022-12-01T11:18:33.397Z,5.67
2022-12-01T11:21:10.662Z,5.55
2022-12-01T11:23:39.401Z,5.40
2022-12-01T11:26:12.345Z,5.14
2022-12-01T11:28:53.393Z,5.33
2022-12-01T11:31:36.518Z,5.39
2022-12-01T11:34:07.316Z,5.40
2022-12-01T11:36:38.919Z,5.38
2022-12-01T11:39:06.397Z,5.42
2022-12-01T11:41:37.906Z,5.65
2022-12-01T11:47:24.764Z,5.54
2022-12-01T11:49:54.811Z,5.42
2022-12-01T11:52:27.162Z,5.52
2022-12-01T11:55:03.280Z,5.48
2022-12-01T11:57:35.891Z,5.90
2022-12-01T12:00:12.827Z,5.93
2022-12-01T12:02:44.928Z,5.59
2022-12-01T12:05:42.193Z,5.81
2022-12-01T12:08:16.759Z,5.80
2022-12-01T12:10:49.678Z,5.73
2022-12-01T12:13:32.985Z,5.94
2022-12-01T12:16:08.338Z,5.90
2022-12-01T12:18:56.491Z,5.67
2022-12-01T12:21:32.133Z,5.75
2022-12-01T12:24:24.235Z,5.60
2022-12-01T12:26:56.423Z,5.28
2022-12-01T12:29:36.400Z,5.38
2022-12-01T12:32:15.882Z,5.58
2022-12-01T12:34:50.142Z,5.72
2022-12-01T12:37:22.947Z,5.87
2022-12-01T12:40:10.485Z,5.84
2022-12-01T12:42:47.293Z,5.83
2022-12-01T12:45:22.718Z,5.81
2022-12-01T12:48:13.820Z,5.94
2022-12-01T12:50:44.835Z,5.70
2022-12-01T12:53:15.351Z,5.46
2022-12-01T12:55:46.472Z,5.63
2022-12-01T12:58:20.656Z,5.49
2022-12-01T13:00:54.027Z,5.52
2022-12-01T13:03:32.211Z,5.72
2022-12-01T13:06:03.458Z,5.81
2022-12-01T13:08:35.219Z,5.15
2022-12-01T13:11:05.727Z,5.31
2022-12-01T13:13:38.273Z,5.42
2022-12-01T13:16:07.806Z,5.34
2022-12-01T13:18:41.834Z,5.55
2022-12-01T13:21:15.349Z,5.09
2022-12-01T13:23:43.651Z,5.29
2022-12-01T13:26:11.770Z,5.20
2022-12-01T13:28:45.320Z,5.20
2022-12-01T13:31:14.747Z,5.25
2022-12-01T13:33:46.262Z,5.13
2022-12-01T13:39:04.533Z,5.09
2022-12-01T13:41:34.376Z,5.04
2022-12-01T13:44:04.432Z,4.76
2022-12-01T13:46:34.351Z,4.70
2022-12-01T13:49:04.523Z,4.84
2022-12-01T13:52:05.569Z,4.88
2022-12-01T13:54:36.743Z,5.05
2022-12-01T13:57:11.925Z,4.82
2022-12-01T14:00:05.000Z,4.86
2022-12-01T14:02:39.752Z,4.77
2022-12-01T14:05:45.885Z,4.87
2022-12-01T14:08:22.818Z,5.18
2022-12-01T14:10:55.775Z,5.24
2022-12-01T14:13:23.791Z,5.09
2022-12-01T14:15:55.856Z,4.72
2022-12-01T14:18:31.060Z,4.82
2022-12-01T14:21:00.706Z,4.81
2022-12-01T14:23:30.980Z,4.48
2022-12-01T14:26:02.778Z,4.62
2022-12-01T14:29:21.102Z,4.71
2022-12-01T14:32:22.685Z,4.63
2022-12-01T14:35:12.023Z,4.59
2022-12-01T14:37:49.928Z,4.67
2022-12-01T14:40:23.469Z,4.66
2022-12-01T14:43:12.036Z,4.26
2022-12-01T14:45:47.896Z,4.20
2022-12-01T14:48:18.310Z,4.19
2022-12-01T14:50:50.534Z,4.31
2022-12-01T14:53:27.216Z,4.46
2022-12-01T14:55:57.487Z,4.36
2022-12-01T14:58:27.430Z,4.31
2022-12-01T15:01:02.995Z,4.30
2022-12-01T15:03:34.418Z,4.38
2022-12-01T15:06:04.635Z,4.64
2022-12-01T15:09:10.496Z,4.46
2022-12-01T15:11:25.161Z,4.58
2022-12-01T15:13:57.744Z,4.71
2022-12-01T15:16:27.335Z,4.85
2022-12-01T15:18:55.051Z,4.85
2022-12-01T15:21:24.119Z,4.98
2022-12-01T15:23:58.703Z,4.72
2022-12-01T15:26:28.908Z,4.48
2022-12-01T15:29:12.084Z,4.38
2022-12-01T15:31:39.936Z,4.66
2022-12-01T15:34:10.642Z,4.78
2022-12-01T15:36:38.426Z,4.76
2022-12-01T15:39:07.660Z,4.81
2022-12-01T15:41:35.692Z,4.67
2022-12-01T15:44:05.382Z,4.34
2022-12-01T15:46:35.077Z,4.44
2022-12-01T15:49:09.584Z,4.43
2022-12-01T15:51:37.083Z,4.24
2022-12-01T15:54:04.728Z,4.15
2022-12-01T15:56:38.109Z,3.98
2022-12-01T15:59:09.205Z,4.19
2022-12-01T16:01:37.194Z,4.27
2022-12-01T16:04:08.478Z,4.46
2022-12-01T16:06:38.007Z,4.20
2022-12-01T16:09:21.217Z,4.28
2022-12-01T16:14:52.173Z,4.23
2022-12-01T16:17:19.714Z,4.26
2022-12-01T16:19:47.140Z,4.09
2022-12-01T16:22:17.371Z,3.88
2022-12-01T16:24:47.458Z,3.98
2022-12-01T16:27:21.638Z,4.14
2022-12-01T16:29:53.273Z,4.06
2022-12-01T16:32:24.179Z,4.00
2022-12-01T16:34:52.914Z,3.94
2022-12-01T16:37:21.424Z,3.74
2022-12-01T16:39:49.064Z,3.87
2022-12-01T16:42:18.796Z,3.86
2022-12-01T16:44:46.561Z,3.92
2022-12-01T16:47:18.436Z,3.59
2022-12-01T16:49:46.032Z,3.57
2022-12-01T16:55:01.444Z,3.54
2022-12-01T16:57:29.382Z,3.40
2022-12-01T16:59:56.804Z,3.41
2022-12-01T17:02:27.608Z,3.63
2022-12-01T17:04:55.094Z,3.59
2022-12-01T17:07:22.931Z,3.44
2022-12-01T17:09:50.389Z,3.48
2022-12-01T17:12:18.063Z,3.59
2022-12-01T17:14:45.544Z,3.57
2022-12-01T17:17:13.002Z,3.58
2022-12-01T17:19:41.769Z,3.51
2022-12-01T17:22:09.234Z,3.46
2022-12-01T17:24:36.721Z,3.38
2022-12-01T17:27:04.324Z,3.34
2022-12-01T17:29:31.832Z,3.58
2022-12-01T17:31:59.271Z,3.44
2022-12-01T17:34:28.459Z,3.29
2022-12-01T17:36:57.574Z,3.22
2022-12-01T17:39:25.372Z,3.40
2022-12-01T17:41:54.674Z,3.59
2022-12-01T17:44:22.073Z,3.42
2022-12-01T17:46:49.671Z,3.25
2022-12-01T17:49:17.378Z,2.97
2022-12-01T17:51:44.826Z,3.15
2022-12-01T17:54:13.624Z,3.20
2022-12-01T17:56:41.051Z,3.36
2022-12-01T17:59:08.479Z,3.39
2022-12-01T18:01:36.900Z,3.23
2022-12-01T18:04:04.514Z,3.51
2022-12-01T18:06:31.972Z,3.53
2022-12-01T18:09:00.444Z,3.66
2022-12-01T18:11:29.245Z,3.68
2022-12-01T18:13:56.683Z,3.40
2022-12-01T18:16:26.122Z,3.44
2022-12-01T18:18:54.672Z,3.34
2022-12-01T18:21:23.511Z,3.38
2022-12-01T18:23:51.455Z,3.52
2022-12-01T18:26:20.424Z,3.38
2022-12-01T18:28:51.820Z,3.59
2022-12-01T18:31:19.483Z,3.67
2022-12-01T18:33:48.388Z,3.54
2022-12-01T18:36:18.500Z,3.71
2022-12-01T18:38:47.080Z,3.63
2022-12-01T18:41:15.011Z,3.71
2022-12-01T18:43:42.692Z,3.56
2022-12-01T18:46:13.580Z,3.51
2022-12-01T18:48:45.207Z,3.56
2022-12-01T18:51:13.250Z,3.68
2022-12-01T18:53:40.901Z,3.78
2022-12-01T18:56:12.039Z,3.66
2022-12-01T18:58:40.370Z,3.49
2022-12-01T19:01:20.865Z,3.61
2022-12-01T19:03:48.721Z,3.59
2022-12-01T19:06:16.486Z,3.78
2022-12-01T19:08:45.831Z,3.83
2022-12-01T19:11:13.399Z,3.94
2022-12-01T19:13:41.542Z,4.01
2022-12-01T19:16:10.317Z,3.70
2022-12-01T19:18:42.247Z,4.11
2022-12-01T19:21:11.640Z,4.33
2022-12-01T19:23:39.531Z,4.41
2022-12-01T19:26:08.080Z,4.35
2022-12-01T19:28:36.691Z,4.13
2022-12-01T19:31:06.909Z,4.09
2022-12-01T19:33:34.951Z,4.27
2022-12-01T19:36:07.100Z,4.40
2022-12-01T19:38:34.622Z,4.38
2022-12-01T19:41:02.791Z,4.39
2022-12-01T19:43:30.209Z,4.27
2022-12-01T19:45:57.646Z,4.43
2022-12-01T19:48:25.144Z,4.39
2022-12-01T19:50:52.702Z,4.43
2022-12-01T19:53:21.450Z,4.44
2022-12-01T19:55:48.895Z,4.23
2022-12-01T19:58:16.334Z,4.42
2022-12-01T20:00:43.887Z,4.50
2022-12-01T20:03:11.360Z,4.63
2022-12-01T20:05:38.786Z,4.39
2022-12-01T20:08:06.570Z,4.44
2022-12-01T20:10:35.867Z,4.55
2022-12-01T20:13:03.424Z,4.71
2022-12-01T20:15:33.542Z,4.75
2022-12-01T20:18:00.933Z,4.80
2022-12-01T20:20:28.371Z,4.72
2022-12-01T20:22:56.467Z,4.76
2022-12-01T20:25:23.911Z,4.80
2022-12-01T20:27:52.674Z,4.80
2022-12-01T20:30:20.615Z,4.77
2022-12-01T20:32:48.062Z,4.45
2022-12-01T20:35:15.577Z,4.38
2022-12-01T20:37:43.011Z,4.52
2022-12-01T20:40:11.571Z,4.50
2022-12-01T20:42:39.595Z,4.38
2022-12-01T20:45:08.814Z,4.49
2022-12-01T20:47:38.626Z,4.40
2022-12-01T20:50:06.823Z,4.30
2022-12-01T20:52:34.339Z,4.20
2022-12-01T20:55:01.736Z,4.17
2022-12-01T20:57:29.152Z,4.28
2022-12-01T20:59:56.547Z,4.12
2022-12-01T21:02:25.492Z,4.29
2022-12-01T21:04:56.394Z,4.40
2022-12-01T21:07:26.469Z,4.38
2022-12-01T21:09:53.936Z,4.38
2022-12-01T21:12:38.905Z,4.47
2022-12-01T21:15:12.613Z,4.07
2022-12-01T21:17:44.935Z,4.09
2022-12-01T21:20:21.412Z,4.12
2022-12-01T21:22:50.023Z,4.28
2022-12-01T21:25:19.723Z,4.02
2022-12-01T21:27:47.808Z,3.99
2022-12-01T21:30:17.547Z,3.83
2022-12-01T21:32:47.034Z,4.04
2022-12-01T21:35:18.287Z,3.83
2022-12-01T21:37:46.720Z,3.83
2022-12-01T21:40:17.218Z,3.95
2022-12-01T21:42:44.634Z,4.03
2022-12-01T21:45:19.687Z,3.58
2022-12-01T21:47:48.475Z,3.97
2022-12-01T21:50:19.802Z,3.92
2022-12-01T21:52:47.891Z,4.18
2022-12-01T21:55:35.740Z,4.19
2022-12-01T21:58:03.704Z,4.27
2022-12-01T22:00:33.094Z,4.03
2022-12-01T22:03:16.732Z,4.01
2022-12-01T22:06:01.070Z,4.11
2022-12-01T22:08:35.825Z,4.01
2022-12-01T22:11:05.193Z,4.11
2022-12-01T22:13:51.479Z,4.30
2022-12-01T22:16:21.601Z,3.98
2022-12-01T22:18:53.182Z,3.96
2022-12-01T22:21:41.425Z,4.00
2022-12-01T22:24:26.715Z,4.00
2022-12-01T22:27:03.852Z,3.69
2022-12-01T22:29:32.970Z,3.82
2022-12-01T22:32:27.512Z,3.84
2022-12-01T22:34:59.921Z,3.66
2022-12-01T22:37:35.247Z,3.85
2022-12-01T22:40:02.962Z,3.87
2022-12-01T22:42:32.088Z,3.95
2022-12-01T22:45:00.705Z,4.02
2022-12-01T22:47:33.377Z,4.02
2022-12-01T22:50:03.204Z,3.92
2022-12-01T22:52:30.757Z,4.05
2022-12-01T22:55:00.908Z,4.07
2022-12-01T22:57:32.897Z,4.04
2022-12-01T23:00:03.538Z,4.00
2022-12-01T23:02:34.578Z,4.03
2022-12-01T23:05:18.608Z,4.02
2022-12-01T23:07:46.379Z,3.94
2022-12-01T23:10:17.238Z,4.11
2022-12-01T23:12:45.577Z,4.15
2022-12-01T23:15:21.690Z,4.06
2022-12-01T23:17:49.683Z,3.95
2022-12-01T23:20:33.041Z,4.12
2022-12-01T23:23:02.138Z,4.20
2022-12-01T23:25:29.748Z,4.17
2022-12-01T23:28:00.339Z,4.17
2022-12-01T23:30:28.125Z,4.15
2022-12-01T23:33:03.528Z,4.17
2022-12-01T23:35:34.039Z,4.13
2022-12-01T23:38:01.451Z,4.15
2022-12-01T23:40:35.165Z,3.78
2022-12-01T23:43:11.084Z,3.86
2022-12-01T23:45:38.600Z,3.93
2022-12-01T23:48:11.087Z,3.73
2022-12-01T23:50:40.042Z,3.78
2022-12-01T23:53:17.928Z,3.55
2022-12-01T23:55:45.295Z,3.82
2022-12-01T23:58:14.316Z,3.90
